createdAt,value
2019-02-06T00:00:50.788Z,3.30
2019-02-06T00:03:20.286Z,3.20
2019-02-06T00:05:48.727Z,3.20
2019-02-06T00:08:17.159Z,3.20
2019-02-06T00:10:45.548Z,3.20
2019-02-06T00:13:13.987Z,3.20
2019-02-06T00:15:42.403Z,3.30
2019-02-06T00:18:11.286Z,3.30
2019-02-06T00:20:39.755Z,3.40
2019-02-06T00:23:08.164Z,3.40
2019-02-06T00:25:36.564Z,3.40
2019-02-06T00:28:05.538Z,3.50
2019-02-06T00:30:33.952Z,3.50
2019-02-06T00:33:02.352Z,3.50
2019-02-06T00:35:30.755Z,3.60
2019-02-06T00:37:59.186Z,3.70
2019-02-06T00:40:27.585Z,3.70
2019-02-06T00:42:56.052Z,3.70
2019-02-06T00:45:24.455Z,3.70
2019-02-06T00:47:52.891Z,3.80
2019-02-06T00:50:21.583Z,3.90
2019-02-06T00:52:49.987Z,3.80
2019-02-06T00:55:19.207Z,3.90
2019-02-06T00:57:47.619Z,4.00
2019-02-06T01:00:20.671Z,4.10
2019-02-06T01:02:49.623Z,4.10
2019-02-06T01:05:18.443Z,4.20
2019-02-06T01:07:47.521Z,4.20
2019-02-06T01:10:17.850Z,4.20
2019-02-06T01:12:46.261Z,4.30
2019-02-06T01:15:15.096Z,4.40
2019-02-06T01:17:43.581Z,4.40
2019-02-06T01:20:14.908Z,4.50
2019-02-06T01:22:43.315Z,4.60
2019-02-06T01:25:16.395Z,4.70
2019-02-06T01:27:45.283Z,4.70
2019-02-06T01:30:17.206Z,4.70
2019-02-06T01:32:45.654Z,4.60
2019-02-06T01:35:14.807Z,4.60
2019-02-06T01:37:43.204Z,4.60
2019-02-06T01:40:17.191Z,4.60
2019-02-06T01:42:45.967Z,4.60
2019-02-06T01:45:17.770Z,4.50
2019-02-06T01:47:46.173Z,4.40
2019-02-06T01:50:16.855Z,4.40
2019-02-06T01:52:45.252Z,4.40
2019-02-06T01:55:15.308Z,4.40
2019-02-06T01:57:43.706Z,4.40
2019-02-06T02:00:20.428Z,4.40
2019-02-06T02:02:48.987Z,4.50
2019-02-06T02:05:19.731Z,4.50
2019-02-06T02:07:48.953Z,4.50
2019-02-06T02:10:18.819Z,4.50
2019-02-06T02:12:47.589Z,4.50
2019-02-06T02:15:17.527Z,4.40
2019-02-06T02:17:45.996Z,4.40
2019-02-06T02:20:17.406Z,4.40
2019-02-06T02:22:45.804Z,4.50
2019-02-06T02:25:14.281Z,4.60
2019-02-06T02:27:42.907Z,4.60
2019-02-06T02:30:14.421Z,4.70
2019-02-06T02:32:42.812Z,4.70
2019-02-06T02:35:11.257Z,4.80
2019-02-06T02:37:39.688Z,4.90
2019-02-06T02:40:10.744Z,5.00
2019-02-06T02:42:39.428Z,5.00
2019-02-06T02:45:11.627Z,5.00
2019-02-06T02:47:40.027Z,5.00
2019-02-06T02:50:10.468Z,4.90
2019-02-06T02:52:38.954Z,5.00
2019-02-06T02:55:09.596Z,5.00
2019-02-06T02:57:37.999Z,5.00
2019-02-06T03:00:21.787Z,5.10
2019-02-06T03:02:52.468Z,5.10
2019-02-06T03:05:22.247Z,5.20
2019-02-06T03:07:50.643Z,5.20
2019-02-06T03:10:19.072Z,5.10
2019-02-06T03:12:47.562Z,5.20
2019-02-06T03:15:15.947Z,5.20
2019-02-06T03:17:44.340Z,5.20
2019-02-06T03:20:13.799Z,5.10
2019-02-06T03:22:42.232Z,5.20
2019-02-06T03:25:13.186Z,5.20
2019-02-06T03:27:41.643Z,5.20
2019-02-06T03:30:18.709Z,5.20
2019-02-06T03:32:47.168Z,5.20
2019-02-06T03:35:15.832Z,5.20
2019-02-06T03:37:44.241Z,5.20
2019-02-06T03:40:18.128Z,5.20
2019-02-06T03:42:46.532Z,5.20
2019-02-06T03:45:15.589Z,5.20
2019-02-06T03:47:44.347Z,5.20
2019-02-06T03:50:17.851Z,5.10
2019-02-06T03:52:46.266Z,5.10
2019-02-06T03:55:14.840Z,5.10
2019-02-06T03:57:43.307Z,5.10
2019-02-06T04:00:19.960Z,5.00
2019-02-06T04:02:48.493Z,5.00
2019-02-06T04:05:16.905Z,5.00
2019-02-06T04:07:45.339Z,5.00
2019-02-06T04:10:16.347Z,4.90
2019-02-06T04:12:44.755Z,5.00
2019-02-06T04:15:14.289Z,5.00
2019-02-06T04:17:42.691Z,5.00
2019-02-06T04:20:17.727Z,4.80
2019-02-06T04:22:46.153Z,4.70
2019-02-06T04:25:15.116Z,4.70
2019-02-06T04:27:43.581Z,4.70
2019-02-06T04:30:14.868Z,4.70
2019-02-06T04:32:43.450Z,4.70
2019-02-06T04:35:13.936Z,4.70
2019-02-06T04:37:42.644Z,4.70
2019-02-06T04:40:14.270Z,4.60
2019-02-06T04:42:42.743Z,4.60
2019-02-06T04:45:13.084Z,4.60
2019-02-06T04:47:41.497Z,4.50
2019-02-06T04:50:12.396Z,4.60
2019-02-06T04:52:41.097Z,4.60
2019-02-06T04:55:15.000Z,4.60
2019-02-06T04:57:43.408Z,4.60
2019-02-06T05:00:23.521Z,4.50
2019-02-06T05:02:52.089Z,4.50
2019-02-06T05:05:20.547Z,4.40
2019-02-06T05:07:49.024Z,4.30
2019-02-06T05:10:17.796Z,4.20
2019-02-06T05:12:46.694Z,4.20
2019-02-06T05:15:16.828Z,4.20
2019-02-06T05:17:45.235Z,4.20
2019-02-06T05:20:19.566Z,4.10
2019-02-06T05:22:47.974Z,4.10
2019-02-06T05:25:16.383Z,4.10
2019-02-06T05:27:45.179Z,4.10
2019-02-06T05:30:13.953Z,4.10
2019-02-06T05:32:42.942Z,4.10
2019-02-06T05:35:11.541Z,4.10
2019-02-06T05:37:39.943Z,4.20
2019-02-06T05:40:10.702Z,4.20
2019-02-06T05:42:39.184Z,4.20
2019-02-06T05:45:09.848Z,4.10
2019-02-06T05:47:38.260Z,4.20
2019-02-06T05:50:13.231Z,4.10
2019-02-06T05:52:41.644Z,4.10
2019-02-06T05:55:10.395Z,4.10
2019-02-06T05:57:39.200Z,4.20
2019-02-06T06:00:13.515Z,4.10
2019-02-06T06:02:41.993Z,4.10
2019-02-06T06:05:10.640Z,4.10
2019-02-06T06:07:45.059Z,4.10
2019-02-06T06:10:12.456Z,4.20
2019-02-06T06:12:41.323Z,4.30
2019-02-06T06:15:11.367Z,4.30
2019-02-06T06:17:39.784Z,4.30
2019-02-06T06:20:11.865Z,4.20
2019-02-06T06:22:40.531Z,4.20
2019-02-06T06:25:12.117Z,4.20
2019-02-06T06:27:40.613Z,4.30
2019-02-06T06:30:20.215Z,4.30
2019-02-06T06:32:48.688Z,4.30
2019-02-06T06:35:17.130Z,4.30
2019-02-06T06:37:57.823Z,4.30
2019-02-06T06:40:18.956Z,4.30
2019-02-06T06:42:48.159Z,4.30
2019-02-06T06:45:19.014Z,4.30
2019-02-06T06:47:48.380Z,3.60
2019-02-06T06:50:19.848Z,4.30
2019-02-06T06:52:48.248Z,4.40
2019-02-06T06:55:17.125Z,4.40
2019-02-06T06:57:46.022Z,4.40
2019-02-06T07:00:19.808Z,4.30
2019-02-06T07:02:48.492Z,4.30
2019-02-06T07:05:16.978Z,4.30
2019-02-06T07:07:45.477Z,4.30
2019-02-06T07:10:16.071Z,4.30
2019-02-06T07:12:44.791Z,4.40
2019-02-06T07:15:21.743Z,4.30
2019-02-06T07:17:50.141Z,4.30
2019-02-06T07:20:19.695Z,4.40
2019-02-06T07:22:48.159Z,4.40
2019-02-06T07:25:18.884Z,4.40
2019-02-06T07:27:47.850Z,4.40
2019-02-06T07:30:22.400Z,4.40
2019-02-06T07:32:51.625Z,4.50
2019-02-06T07:35:20.056Z,4.50
2019-02-06T07:37:48.455Z,4.60
2019-02-06T07:40:17.988Z,4.60
2019-02-06T07:42:46.404Z,4.70
2019-02-06T07:45:17.155Z,4.70
2019-02-06T07:47:45.551Z,4.70
2019-02-06T07:50:26.175Z,4.70
2019-02-06T07:52:55.471Z,4.80
2019-02-06T07:55:23.907Z,4.80
2019-02-06T07:57:52.320Z,4.90
2019-02-06T08:00:20.735Z,4.90
2019-02-06T08:02:49.323Z,4.90
2019-02-06T08:05:21.794Z,4.90
2019-02-06T08:07:50.775Z,5.00
2019-02-06T08:10:25.063Z,5.10
2019-02-06T08:12:53.696Z,5.10
2019-02-06T08:15:22.272Z,5.20
2019-02-06T08:17:50.923Z,5.20
2019-02-06T08:20:21.186Z,5.20
2019-02-06T08:22:49.795Z,5.30
2019-02-06T08:25:20.139Z,5.30
2019-02-06T08:27:48.555Z,5.30
2019-02-06T08:30:28.775Z,5.40
2019-02-06T08:32:57.203Z,5.40
2019-02-06T08:35:25.642Z,5.50
2019-02-06T08:37:54.306Z,5.40
2019-02-06T08:40:25.508Z,5.50
2019-02-06T08:42:54.297Z,5.50
2019-02-06T08:45:23.020Z,5.50
2019-02-06T08:47:51.506Z,5.60
2019-02-06T08:50:23.734Z,5.60
2019-02-06T08:52:52.561Z,5.70
2019-02-06T08:55:32.176Z,5.90
2019-02-06T08:58:01.334Z,5.90
2019-02-06T09:00:32.860Z,6.00
2019-02-06T09:03:01.511Z,6.10
2019-02-06T09:05:30.763Z,6.20
2019-02-06T09:07:59.199Z,6.10
2019-02-06T09:10:29.439Z,6.10
2019-02-06T09:12:59.100Z,6.00
2019-02-06T09:15:28.064Z,6.10
2019-02-06T09:17:56.919Z,6.20
2019-02-06T09:20:27.475Z,6.20
2019-02-06T09:22:56.424Z,6.20
2019-02-06T09:25:26.168Z,6.30
2019-02-06T09:27:54.675Z,6.30
2019-02-06T09:30:26.229Z,6.30
2019-02-06T09:32:55.504Z,6.40
2019-02-06T09:35:24.280Z,6.50
2019-02-06T09:37:52.886Z,6.60
2019-02-06T09:40:23.845Z,6.60
2019-02-06T09:42:52.260Z,6.70
2019-02-06T09:45:20.655Z,6.80
2019-02-06T09:47:49.073Z,6.90
2019-02-06T09:50:26.492Z,6.90
2019-02-06T09:52:55.169Z,7.00
2019-02-06T09:55:23.723Z,7.10
2019-02-06T09:57:52.152Z,7.20
2019-02-06T10:00:23.230Z,7.20
2019-02-06T10:02:51.643Z,7.30
2019-02-06T10:05:20.735Z,7.40
2019-02-06T10:07:49.139Z,7.60
2019-02-06T10:10:19.488Z,7.70
2019-02-06T10:12:48.034Z,7.50
2019-02-06T10:15:21.955Z,7.50
2019-02-06T10:17:50.640Z,7.60
2019-02-06T10:20:25.853Z,7.60
2019-02-06T10:22:54.243Z,7.60
2019-02-06T10:25:22.741Z,7.70
2019-02-06T10:27:51.175Z,7.70
2019-02-06T10:30:31.694Z,7.80
2019-02-06T10:33:00.440Z,7.90
2019-02-06T10:35:29.408Z,7.80
2019-02-06T10:37:57.808Z,7.80
2019-02-06T10:40:26.760Z,7.90
2019-02-06T10:42:55.393Z,7.80
2019-02-06T10:45:23.811Z,7.90
2019-02-06T10:47:52.592Z,7.90
2019-02-06T10:50:24.083Z,8.00
2019-02-06T10:52:52.475Z,8.10
2019-02-06T10:55:20.885Z,8.20
2019-02-06T10:57:49.469Z,8.30
2019-02-06T11:00:21.304Z,8.40
2019-02-06T11:02:49.871Z,8.40
2019-02-06T11:05:18.456Z,8.40
2019-02-06T11:07:46.899Z,8.40
2019-02-06T11:10:21.272Z,8.30
2019-02-06T11:12:49.681Z,8.10
2019-02-06T11:15:18.121Z,7.90
2019-02-06T11:17:46.697Z,7.90
2019-02-06T11:20:24.367Z,7.80
2019-02-06T11:22:52.807Z,7.90
2019-02-06T11:25:21.267Z,7.80
2019-02-06T11:27:49.673Z,7.70
2019-02-06T11:30:21.151Z,7.70
2019-02-06T11:32:49.836Z,7.70
2019-02-06T11:35:18.252Z,7.40
2019-02-06T11:37:46.915Z,7.20
2019-02-06T11:40:18.710Z,7.00
2019-02-06T11:42:47.460Z,7.00
2019-02-06T11:45:18.816Z,7.10
2019-02-06T11:47:48.130Z,7.10
2019-02-06T11:50:23.267Z,7.10
2019-02-06T11:52:52.821Z,7.10
2019-02-06T11:55:26.443Z,7.00
2019-02-06T11:57:54.931Z,7.10
2019-02-06T12:00:44.633Z,7.00
2019-02-06T12:03:13.110Z,6.90
2019-02-06T12:05:41.607Z,6.90
2019-02-06T12:08:12.561Z,6.80
2019-02-06T12:10:40.495Z,6.80
2019-02-06T12:13:09.651Z,6.90
2019-02-06T12:15:38.167Z,6.90
2019-02-06T12:18:07.215Z,6.90
2019-02-06T12:20:36.167Z,6.90
2019-02-06T12:23:05.116Z,6.80
2019-02-06T12:25:34.585Z,6.90
2019-02-06T12:28:05.217Z,6.90
2019-02-06T12:30:35.760Z,6.80
2019-02-06T12:33:05.220Z,6.80
2019-02-06T12:35:33.646Z,6.90
2019-02-06T12:38:02.077Z,6.90
2019-02-06T12:40:30.491Z,7.00
2019-02-06T12:42:58.932Z,7.10
2019-02-06T12:45:27.350Z,7.20
2019-02-06T12:47:56.152Z,7.20
2019-02-06T12:50:26.866Z,7.20
2019-02-06T12:52:57.492Z,7.10
2019-02-06T12:55:31.708Z,7.10
2019-02-06T12:58:00.121Z,7.10
2019-02-06T13:00:33.936Z,7.00
2019-02-06T13:03:02.416Z,6.90
2019-02-06T13:05:31.702Z,6.90
2019-02-06T13:08:00.720Z,6.80
2019-02-06T13:10:33.899Z,6.80
2019-02-06T13:12:59.284Z,6.80
2019-02-06T13:15:27.995Z,6.80
2019-02-06T13:17:56.507Z,6.90
2019-02-06T13:20:35.919Z,7.00
2019-02-06T13:23:05.912Z,7.00
2019-02-06T13:25:34.641Z,7.00
2019-02-06T13:28:03.082Z,7.00
2019-02-06T13:30:35.246Z,7.10
2019-02-06T13:33:04.755Z,7.00
2019-02-06T13:35:33.429Z,6.90
2019-02-06T13:38:01.839Z,6.90
2019-02-06T13:40:30.283Z,6.80
2019-02-06T13:42:59.067Z,6.80
2019-02-06T13:45:33.665Z,6.90
2019-02-06T13:48:02.139Z,6.80
2019-02-06T13:50:30.851Z,6.70
2019-02-06T13:52:59.316Z,6.70
2019-02-06T13:55:27.743Z,6.70
2019-02-06T13:57:56.136Z,6.70
2019-02-06T14:00:30.457Z,6.70
2019-02-06T14:02:59.018Z,6.70
2019-02-06T14:05:29.293Z,6.70
2019-02-06T14:08:00.118Z,6.80
2019-02-06T14:10:30.963Z,6.90
2019-02-06T14:12:59.990Z,6.90
2019-02-06T14:15:34.565Z,6.90
2019-02-06T14:18:02.988Z,6.90
2019-02-06T14:20:31.533Z,6.90
2019-02-06T14:23:11.952Z,7.00
2019-02-06T14:25:49.867Z,6.90
2019-02-06T14:28:45.582Z,6.90
2019-02-06T14:31:36.748Z,6.90
2019-02-06T14:34:10.916Z,6.80
2019-02-06T14:37:14.152Z,6.80
2019-02-06T14:39:54.493Z,6.80
2019-02-06T14:42:34.738Z,6.80
2019-02-06T14:45:28.984Z,6.90
2019-02-06T14:48:06.266Z,6.90
2019-02-06T14:51:04.755Z,6.80
2019-02-06T14:53:39.163Z,6.90
2019-02-06T14:56:14.108Z,7.00
2019-02-06T14:59:02.215Z,7.00
2019-02-06T15:01:54.948Z,6.90
2019-02-06T15:04:35.249Z,6.90
2019-02-06T15:07:09.559Z,7.00
2019-02-06T15:09:53.016Z,7.00
2019-02-06T15:12:51.468Z,7.00
2019-02-06T15:15:31.320Z,7.00
2019-02-06T15:18:05.329Z,6.90
2019-02-06T15:20:42.771Z,7.00
2019-02-06T15:23:32.640Z,6.90
2019-02-06T15:26:11.819Z,6.80
2019-02-06T15:29:03.420Z,6.80
2019-02-06T15:31:57.749Z,6.80
2019-02-06T15:34:53.603Z,6.80
2019-02-06T15:37:27.940Z,6.80
2019-02-06T15:40:14.274Z,6.70
2019-02-06T15:43:06.911Z,6.70
2019-02-06T15:45:47.289Z,6.60
2019-02-06T15:48:33.732Z,6.50
2019-02-06T15:51:32.132Z,6.50
2019-02-06T15:54:09.259Z,6.50
2019-02-06T15:57:01.664Z,6.50
2019-02-06T15:59:45.199Z,6.50
2019-02-06T16:02:31.766Z,6.50
2019-02-06T16:05:26.159Z,6.50
2019-02-06T16:08:18.500Z,6.50
2019-02-06T16:10:58.649Z,6.50
2019-02-06T16:13:51.142Z,6.50
2019-02-06T16:16:38.336Z,6.60
2019-02-06T16:19:12.833Z,6.70
2019-02-06T16:21:59.535Z,6.70
2019-02-06T16:24:34.056Z,6.70
2019-02-06T16:27:08.446Z,6.80
2019-02-06T16:30:00.228Z,6.70
2019-02-06T16:32:43.138Z,6.70
2019-02-06T16:35:31.462Z,6.70
2019-02-06T16:38:02.980Z,6.70
2019-02-06T16:40:40.619Z,6.80
2019-02-06T16:43:32.051Z,6.80
2019-02-06T16:46:34.175Z,6.90
2019-02-06T16:49:18.252Z,6.90
2019-02-06T16:52:04.982Z,6.80
2019-02-06T16:54:49.000Z,6.70
2019-02-06T16:57:23.732Z,6.70
2019-02-06T17:00:12.772Z,6.70
2019-02-06T17:02:55.904Z,6.70
2019-02-06T17:05:46.628Z,6.70
2019-02-06T17:08:33.079Z,6.70
2019-02-06T17:11:07.273Z,6.70
2019-02-06T17:13:50.305Z,6.80
2019-02-06T17:16:27.249Z,6.70
2019-02-06T17:19:14.033Z,6.60
2019-02-06T17:21:57.352Z,6.70
2019-02-06T17:24:38.049Z,6.60
2019-02-06T17:27:12.614Z,6.50
2019-02-06T17:29:55.458Z,6.50
2019-02-06T17:32:35.592Z,6.50
2019-02-06T17:35:23.545Z,6.40
2019-02-06T17:38:25.627Z,6.40
2019-02-06T17:41:09.148Z,6.40
2019-02-06T17:43:58.403Z,6.40
2019-02-06T17:46:38.855Z,6.40
2019-02-06T17:49:33.091Z,6.30
2019-02-06T17:52:10.485Z,6.30
2019-02-06T17:54:48.028Z,6.30
2019-02-06T17:57:16.449Z,6.30
2019-02-06T17:59:44.879Z,6.30
2019-02-06T18:02:13.600Z,6.30
2019-02-06T18:04:42.035Z,6.40
2019-02-06T18:07:11.480Z,6.50
2019-02-06T18:09:39.879Z,6.50
2019-02-06T18:12:08.387Z,6.50
2019-02-06T18:14:36.798Z,6.50
2019-02-06T18:17:05.271Z,6.50
2019-02-06T18:19:37.799Z,6.50
2019-02-06T18:22:07.161Z,6.40
2019-02-06T18:24:35.769Z,6.50
2019-02-06T18:27:05.789Z,6.50
2019-02-06T18:29:34.263Z,6.50
2019-02-06T18:32:02.722Z,6.40
2019-02-06T18:34:31.517Z,6.40
2019-02-06T18:37:00.399Z,6.30
2019-02-06T18:39:28.908Z,6.30
2019-02-06T18:41:57.721Z,6.30
2019-02-06T18:44:26.477Z,6.30
2019-02-06T18:46:55.427Z,6.30
2019-02-06T18:49:23.909Z,6.30
2019-02-06T18:51:52.315Z,6.30
2019-02-06T18:54:21.103Z,6.30
2019-02-06T18:56:49.522Z,6.30
2019-02-06T18:59:18.060Z,6.30
2019-02-06T19:01:46.496Z,6.40
2019-02-06T19:04:15.317Z,6.30
2019-02-06T19:06:43.946Z,6.40
2019-02-06T19:09:12.531Z,6.40
2019-02-06T19:11:41.089Z,6.40
2019-02-06T19:14:09.706Z,6.40
2019-02-06T19:16:38.569Z,6.40
2019-02-06T19:19:07.160Z,6.30
2019-02-06T19:21:35.630Z,6.40
2019-02-06T19:24:04.520Z,6.40
2019-02-06T19:26:32.943Z,6.40
2019-02-06T19:29:01.367Z,6.30
2019-02-06T19:31:29.844Z,6.30
2019-02-06T19:33:58.272Z,6.30
2019-02-06T19:36:26.687Z,6.30
2019-02-06T19:38:55.168Z,6.30
2019-02-06T19:41:23.641Z,6.30
2019-02-06T19:43:52.061Z,6.30
2019-02-06T19:46:20.481Z,6.30
2019-02-06T19:48:48.993Z,6.30
2019-02-06T19:51:17.476Z,6.30
2019-02-06T19:53:46.170Z,6.30
2019-02-06T19:56:14.684Z,6.40
2019-02-06T19:58:43.116Z,6.40
2019-02-06T20:01:11.592Z,6.40
2019-02-06T20:03:40.005Z,6.40
2019-02-06T20:06:08.477Z,6.40
2019-02-06T20:08:37.226Z,6.40
2019-02-06T20:11:05.716Z,6.40
2019-02-06T20:13:34.507Z,6.50
2019-02-06T20:16:03.052Z,6.50
2019-02-06T20:18:31.820Z,6.50
2019-02-06T20:21:00.303Z,6.50
2019-02-06T20:23:29.069Z,6.60
2019-02-06T20:25:57.761Z,6.60
2019-02-06T20:28:26.244Z,6.60
2019-02-06T20:30:56.649Z,6.60
2019-02-06T20:33:25.066Z,6.60
2019-02-06T20:35:53.635Z,6.60
2019-02-06T20:38:22.121Z,6.60
2019-02-06T20:40:50.539Z,6.50
2019-02-06T20:43:22.288Z,6.50
2019-02-06T20:45:50.340Z,6.50
2019-02-06T20:48:19.219Z,6.50
2019-02-06T20:50:47.719Z,6.50
2019-02-06T20:53:16.135Z,6.50
2019-02-06T20:55:44.635Z,6.50
2019-02-06T20:58:13.127Z,6.50
2019-02-06T21:00:42.370Z,6.50
2019-02-06T21:03:10.782Z,6.50
2019-02-06T21:05:39.207Z,6.50
2019-02-06T21:08:07.759Z,6.50
2019-02-06T21:10:36.726Z,6.50
2019-02-06T21:13:06.359Z,6.50
2019-02-06T21:15:34.932Z,6.60
2019-02-06T21:18:03.409Z,6.70
2019-02-06T21:20:31.908Z,6.70
2019-02-06T21:23:00.989Z,6.80
2019-02-06T21:25:29.433Z,6.80
2019-02-06T21:27:57.887Z,6.90
2019-02-06T21:30:29.020Z,7.00
2019-02-06T21:32:57.450Z,7.10
2019-02-06T21:35:25.932Z,7.10
2019-02-06T21:37:54.543Z,7.20
2019-02-06T21:40:25.183Z,7.30
2019-02-06T21:42:53.721Z,7.30
2019-02-06T21:45:22.140Z,7.40
2019-02-06T21:47:50.642Z,7.50
2019-02-06T21:50:23.660Z,7.40
2019-02-06T21:52:52.812Z,7.40
2019-02-06T21:55:23.841Z,7.30
2019-02-06T21:57:52.335Z,7.40
2019-02-06T22:00:23.552Z,7.40
2019-02-06T22:02:51.970Z,7.50
2019-02-06T22:05:20.380Z,7.60
2019-02-06T22:07:49.135Z,7.50
2019-02-06T22:10:21.887Z,7.50
2019-02-06T22:12:50.364Z,7.50
2019-02-06T22:15:29.886Z,7.50
2019-02-06T22:17:58.308Z,7.60
2019-02-06T22:20:27.277Z,7.50
2019-02-06T22:22:55.676Z,7.50
2019-02-06T22:25:24.364Z,7.50
2019-02-06T22:27:53.120Z,7.60
2019-02-06T22:30:29.731Z,7.60
2019-02-06T22:32:58.418Z,7.60
2019-02-06T22:35:27.776Z,7.60
2019-02-06T22:37:56.245Z,7.60
2019-02-06T22:40:26.463Z,7.60
2019-02-06T22:42:55.115Z,7.70
2019-02-06T22:45:28.218Z,7.80
2019-02-06T22:47:56.836Z,7.90
2019-02-06T22:50:27.304Z,7.80
2019-02-06T22:52:55.800Z,7.80
2019-02-06T22:55:24.291Z,7.80
2019-02-06T22:57:52.719Z,7.80
2019-02-06T23:00:50.097Z,7.90
2019-02-06T23:03:24.704Z,7.90
2019-02-06T23:05:53.185Z,7.90
2019-02-06T23:08:21.585Z,7.90
2019-02-06T23:10:50.004Z,7.90
2019-02-06T23:13:18.787Z,8.00
2019-02-06T23:15:47.223Z,8.00
2019-02-06T23:18:16.087Z,7.90
2019-02-06T23:20:44.505Z,7.90
2019-02-06T23:23:12.915Z,7.90
2019-02-06T23:25:43.156Z,7.90
2019-02-06T23:28:11.483Z,7.80
2019-02-06T23:30:39.912Z,7.80
2019-02-06T23:33:08.321Z,7.90
2019-02-06T23:35:36.735Z,7.90
2019-02-06T23:38:05.223Z,7.90
2019-02-06T23:40:33.655Z,8.00
2019-02-06T23:43:02.556Z,8.10
2019-02-06T23:45:31.033Z,8.20
2019-02-06T23:48:00.411Z,8.00
2019-02-06T23:50:28.813Z,8.00
2019-02-06T23:52:57.291Z,8.00
2019-02-06T23:55:25.697Z,8.00
2019-02-06T23:57:54.108Z,8.10
